sensor_id;sensor_type;location;lat;lon;timestamp;P1;durP1;ratioP1;P2;durP2;ratioP2
55672;SDS011;41554;45.366;20.400;2023-06-04T00:01:04;7.90;;;3.42;;
55672;SDS011;41554;45.366;20.400;2023-06-04T00:03:30;5.75;;;2.95;;
55672;SDS011;41554;45.366;20.400;2023-06-04T00:05:57;4.43;;;2.83;;
55672;SDS011;41554;45.366;20.400;2023-06-04T00:08:23;4.80;;;3.03;;
55672;SDS011;41554;45.366;20.400;2023-06-04T00:10:49;3.95;;;2.83;;
55672;SDS011;41554;45.366;20.400;2023-06-04T00:13:15;3.58;;;2.65;;
55672;SDS011;41554;45.366;20.400;2023-06-04T00:15:41;5.72;;;2.92;;
55672;SDS011;41554;45.366;20.400;2023-06-04T00:18:07;5.30;;;2.85;;
55672;SDS011;41554;45.366;20.400;2023-06-04T00:20:36;6.72;;;4.35;;
55672;SDS011;41554;45.366;20.400;2023-06-04T00:23:02;4.05;;;2.47;;
55672;SDS011;41554;45.366;20.400;2023-06-04T00:25:28;7.60;;;3.10;;
55672;SDS011;41554;45.366;20.400;2023-06-04T00:27:54;5.18;;;3.78;;
55672;SDS011;41554;45.366;20.400;2023-06-04T00:30:20;3.00;;;2.30;;
55672;SDS011;41554;45.366;20.400;2023-06-04T00:32:46;11.10;;;2.65;;
55672;SDS011;41554;45.366;20.400;2023-06-04T00:35:12;4.43;;;3.05;;
55672;SDS011;41554;45.366;20.400;2023-06-04T00:37:38;10.30;;;2.95;;
55672;SDS011;41554;45.366;20.400;2023-06-04T00:40:05;3.47;;;2.85;;
55672;SDS011;41554;45.366;20.400;2023-06-04T00:42:31;5.10;;;2.67;;
55672;SDS011;41554;45.366;20.400;2023-06-04T00:44:58;6.25;;;2.88;;
55672;SDS011;41554;45.366;20.400;2023-06-04T00:47:24;5.55;;;3.72;;
55672;SDS011;41554;45.366;20.400;2023-06-04T00:49:53;7.03;;;4.70;;
55672;SDS011;41554;45.366;20.400;2023-06-04T00:52:19;12.05;;;9.52;;
55672;SDS011;41554;45.366;20.400;2023-06-04T00:54:45;21.05;;;13.82;;
55672;SDS011;41554;45.366;20.400;2023-06-04T00:57:12;18.70;;;15.50;;
55672;SDS011;41554;45.366;20.400;2023-06-04T00:59:38;25.10;;;14.63;;
55672;SDS011;41554;45.366;20.400;2023-06-04T01:02:11;17.48;;;9.43;;
55672;SDS011;41554;45.366;20.400;2023-06-04T01:07:10;11.90;;;6.55;;
55672;SDS011;41554;45.366;20.400;2023-06-04T01:09:38;10.77;;;5.90;;
55672;SDS011;41554;45.366;20.400;2023-06-04T01:12:04;7.03;;;4.93;;
55672;SDS011;41554;45.366;20.400;2023-06-04T01:14:31;8.13;;;6.00;;
55672;SDS011;41554;45.366;20.400;2023-06-04T01:16:59;11.60;;;5.30;;
55672;SDS011;41554;45.366;20.400;2023-06-04T01:22:35;14.02;;;7.63;;
55672;SDS011;41554;45.366;20.400;2023-06-04T01:25:01;5.65;;;3.72;;
55672;SDS011;41554;45.366;20.400;2023-06-04T01:27:28;5.82;;;3.92;;
55672;SDS011;41554;45.366;20.400;2023-06-04T01:29:55;4.85;;;3.22;;
55672;SDS011;41554;45.366;20.400;2023-06-04T01:32:22;6.32;;;4.10;;
55672;SDS011;41554;45.366;20.400;2023-06-04T01:34:49;6.15;;;3.58;;
55672;SDS011;41554;45.366;20.400;2023-06-04T01:37:15;8.55;;;4.40;;
55672;SDS011;41554;45.366;20.400;2023-06-04T01:39:42;4.13;;;3.03;;
55672;SDS011;41554;45.366;20.400;2023-06-04T01:42:08;9.73;;;4.35;;
55672;SDS011;41554;45.366;20.400;2023-06-04T01:44:34;13.85;;;4.50;;
55672;SDS011;41554;45.366;20.400;2023-06-04T01:47:00;8.35;;;3.47;;
55672;SDS011;41554;45.366;20.400;2023-06-04T01:49:27;8.63;;;5.70;;
55672;SDS011;41554;45.366;20.400;2023-06-04T01:51:53;5.88;;;4.70;;
55672;SDS011;41554;45.366;20.400;2023-06-04T01:54:19;7.60;;;4.38;;
55672;SDS011;41554;45.366;20.400;2023-06-04T01:56:45;5.45;;;3.67;;
55672;SDS011;41554;45.366;20.400;2023-06-04T01:59:13;6.93;;;4.38;;
55672;SDS011;41554;45.366;20.400;2023-06-04T02:01:41;7.28;;;4.07;;
55672;SDS011;41554;45.366;20.400;2023-06-04T02:04:07;3.95;;;3.53;;
55672;SDS011;41554;45.366;20.400;2023-06-04T02:06:33;6.38;;;3.83;;
55672;SDS011;41554;45.366;20.400;2023-06-04T02:08:59;5.80;;;4.10;;
55672;SDS011;41554;45.366;20.400;2023-06-04T02:11:26;7.47;;;3.83;;
55672;SDS011;41554;45.366;20.400;2023-06-04T02:13:52;10.82;;;4.50;;
55672;SDS011;41554;45.366;20.400;2023-06-04T02:16:18;8.00;;;3.90;;
55672;SDS011;41554;45.366;20.400;2023-06-04T02:18:44;7.00;;;4.35;;
55672;SDS011;41554;45.366;20.400;2023-06-04T02:21:10;7.22;;;3.70;;
55672;SDS011;41554;45.366;20.400;2023-06-04T02:23:37;6.97;;;3.35;;
55672;SDS011;41554;45.366;20.400;2023-06-04T02:26:03;4.78;;;3.50;;
55672;SDS011;41554;45.366;20.400;2023-06-04T02:28:30;11.25;;;3.55;;
55672;SDS011;41554;45.366;20.400;2023-06-04T02:30:56;5.60;;;3.30;;
55672;SDS011;41554;45.366;20.400;2023-06-04T02:33:22;6.78;;;3.40;;
55672;SDS011;41554;45.366;20.400;2023-06-04T02:35:48;7.72;;;3.90;;
55672;SDS011;41554;45.366;20.400;2023-06-04T02:38:15;5.18;;;3.67;;
55672;SDS011;41554;45.366;20.400;2023-06-04T02:40:41;7.07;;;3.92;;
55672;SDS011;41554;45.366;20.400;2023-06-04T02:43:09;7.00;;;4.88;;
55672;SDS011;41554;45.366;20.400;2023-06-04T02:45:35;5.90;;;3.63;;
55672;SDS011;41554;45.366;20.400;2023-06-04T02:48:01;6.28;;;3.88;;
55672;SDS011;41554;45.366;20.400;2023-06-04T02:50:27;6.90;;;4.68;;
55672;SDS011;41554;45.366;20.400;2023-06-04T02:52:53;7.97;;;3.22;;
55672;SDS011;41554;45.366;20.400;2023-06-04T02:55:19;5.82;;;3.78;;
55672;SDS011;41554;45.366;20.400;2023-06-04T02:57:45;16.90;;;3.10;;
55672;SDS011;41554;45.366;20.400;2023-06-04T03:00:12;7.15;;;3.85;;
55672;SDS011;41554;45.366;20.400;2023-06-04T03:02:39;3.78;;;3.17;;
55672;SDS011;41554;45.366;20.400;2023-06-04T03:05:05;8.70;;;3.67;;
55672;SDS011;41554;45.366;20.400;2023-06-04T03:07:31;11.60;;;4.30;;
55672;SDS011;41554;45.366;20.400;2023-06-04T03:09:58;7.32;;;3.88;;
55672;SDS011;41554;45.366;20.400;2023-06-04T03:12:24;6.65;;;3.45;;
55672;SDS011;41554;45.366;20.400;2023-06-04T03:14:50;30.27;;;6.10;;
55672;SDS011;41554;45.366;20.400;2023-06-04T03:17:17;6.28;;;3.75;;
55672;SDS011;41554;45.366;20.400;2023-06-04T03:19:43;6.85;;;2.78;;
55672;SDS011;41554;45.366;20.400;2023-06-04T03:22:09;4.15;;;3.30;;
55672;SDS011;41554;45.366;20.400;2023-06-04T03:24:36;5.90;;;4.13;;
55672;SDS011;41554;45.366;20.400;2023-06-04T03:27:03;7.60;;;4.32;;
55672;SDS011;41554;45.366;20.400;2023-06-04T03:29:30;6.20;;;3.97;;
55672;SDS011;41554;45.366;20.400;2023-06-04T03:31:56;7.18;;;4.53;;
55672;SDS011;41554;45.366;20.400;2023-06-04T03:34:22;7.70;;;4.57;;
55672;SDS011;41554;45.366;20.400;2023-06-04T03:36:51;7.85;;;5.45;;
55672;SDS011;41554;45.366;20.400;2023-06-04T03:39:18;5.68;;;4.13;;
55672;SDS011;41554;45.366;20.400;2023-06-04T03:41:44;23.15;;;5.57;;
55672;SDS011;41554;45.366;20.400;2023-06-04T03:44:12;6.68;;;3.80;;
55672;SDS011;41554;45.366;20.400;2023-06-04T03:46:39;10.13;;;6.45;;
55672;SDS011;41554;45.366;20.400;2023-06-04T03:49:05;7.10;;;4.80;;
55672;SDS011;41554;45.366;20.400;2023-06-04T03:51:31;8.20;;;4.30;;
55672;SDS011;41554;45.366;20.400;2023-06-04T03:53:58;8.65;;;4.90;;
55672;SDS011;41554;45.366;20.400;2023-06-04T03:56:24;8.48;;;5.43;;
55672;SDS011;41554;45.366;20.400;2023-06-04T03:58:52;10.10;;;5.97;;
55672;SDS011;41554;45.366;20.400;2023-06-04T04:01:18;7.60;;;6.78;;
55672;SDS011;41554;45.366;20.400;2023-06-04T04:03:44;9.40;;;5.30;;
55672;SDS011;41554;45.366;20.400;2023-06-04T04:06:13;9.30;;;3.13;;
55672;SDS011;41554;45.366;20.400;2023-06-04T04:08:40;11.13;;;5.05;;
55672;SDS011;41554;45.366;20.400;2023-06-04T04:11:10;10.38;;;3.72;;
55672;SDS011;41554;45.366;20.400;2023-06-04T04:13:37;10.55;;;4.75;;
55672;SDS011;41554;45.366;20.400;2023-06-04T04:16:03;6.07;;;3.42;;
55672;SDS011;41554;45.366;20.400;2023-06-04T04:18:32;6.75;;;4.55;;
55672;SDS011;41554;45.366;20.400;2023-06-04T04:20:58;4.57;;;3.37;;
55672;SDS011;41554;45.366;20.400;2023-06-04T04:23:24;5.50;;;4.30;;
55672;SDS011;41554;45.366;20.400;2023-06-04T04:25:52;9.10;;;3.80;;
55672;SDS011;41554;45.366;20.400;2023-06-04T04:28:18;4.72;;;3.17;;
55672;SDS011;41554;45.366;20.400;2023-06-04T04:30:45;5.00;;;3.35;;
55672;SDS011;41554;45.366;20.400;2023-06-04T04:33:12;6.22;;;3.03;;
55672;SDS011;41554;45.366;20.400;2023-06-04T04:35:40;12.60;;;4.00;;
55672;SDS011;41554;45.366;20.400;2023-06-04T04:38:07;3.58;;;2.53;;
55672;SDS011;41554;45.366;20.400;2023-06-04T04:40:34;4.40;;;3.55;;
55672;SDS011;41554;45.366;20.400;2023-06-04T04:43:00;4.70;;;3.10;;
55672;SDS011;41554;45.366;20.400;2023-06-04T04:45:26;4.60;;;3.53;;
55672;SDS011;41554;45.366;20.400;2023-06-04T04:47:52;3.63;;;2.70;;
55672;SDS011;41554;45.366;20.400;2023-06-04T04:50:19;3.83;;;3.35;;
55672;SDS011;41554;45.366;20.400;2023-06-04T04:52:45;5.38;;;2.58;;
55672;SDS011;41554;45.366;20.400;2023-06-04T04:55:11;5.30;;;3.15;;
55672;SDS011;41554;45.366;20.400;2023-06-04T04:57:38;17.83;;;4.50;;
55672;SDS011;41554;45.366;20.400;2023-06-04T05:00:04;4.93;;;2.58;;
55672;SDS011;41554;45.366;20.400;2023-06-04T05:02:32;6.00;;;3.78;;
55672;SDS011;41554;45.366;20.400;2023-06-04T05:04:58;7.82;;;3.75;;
55672;SDS011;41554;45.366;20.400;2023-06-04T05:07:24;3.28;;;2.72;;
55672;SDS011;41554;45.366;20.400;2023-06-04T05:09:51;6.07;;;3.30;;
55672;SDS011;41554;45.366;20.400;2023-06-04T05:12:17;9.93;;;5.03;;
55672;SDS011;41554;45.366;20.400;2023-06-04T05:14:43;8.98;;;6.38;;
55672;SDS011;41554;45.366;20.400;2023-06-04T05:17:09;18.42;;;9.05;;
55672;SDS011;41554;45.366;20.400;2023-06-04T05:19:37;12.63;;;8.43;;
55672;SDS011;41554;45.366;20.400;2023-06-04T05:22:04;10.27;;;9.18;;
55672;SDS011;41554;45.366;20.400;2023-06-04T05:24:30;26.70;;;11.23;;
55672;SDS011;41554;45.366;20.400;2023-06-04T05:26:57;17.85;;;10.73;;
55672;SDS011;41554;45.366;20.400;2023-06-04T05:29:23;14.05;;;7.47;;
55672;SDS011;41554;45.366;20.400;2023-06-04T05:31:50;9.07;;;6.95;;
55672;SDS011;41554;45.366;20.400;2023-06-04T05:34:16;10.52;;;7.75;;
55672;SDS011;41554;45.366;20.400;2023-06-04T05:36:43;20.30;;;10.95;;
55672;SDS011;41554;45.366;20.400;2023-06-04T05:39:09;13.05;;;8.00;;
55672;SDS011;41554;45.366;20.400;2023-06-04T05:41:35;10.23;;;7.68;;
55672;SDS011;41554;45.366;20.400;2023-06-04T05:44:02;7.13;;;5.63;;
55672;SDS011;41554;45.366;20.400;2023-06-04T05:46:28;9.88;;;6.65;;
55672;SDS011;41554;45.366;20.400;2023-06-04T05:48:54;19.83;;;8.13;;
55672;SDS011;41554;45.366;20.400;2023-06-04T05:51:20;12.82;;;8.88;;
55672;SDS011;41554;45.366;20.400;2023-06-04T05:53:46;12.20;;;7.63;;
55672;SDS011;41554;45.366;20.400;2023-06-04T05:56:13;13.02;;;6.25;;
55672;SDS011;41554;45.366;20.400;2023-06-04T05:58:39;11.32;;;8.45;;
55672;SDS011;41554;45.366;20.400;2023-06-04T06:01:05;12.70;;;8.70;;
55672;SDS011;41554;45.366;20.400;2023-06-04T06:03:31;10.00;;;8.02;;
55672;SDS011;41554;45.366;20.400;2023-06-04T06:05:57;15.80;;;8.48;;
55672;SDS011;41554;45.366;20.400;2023-06-04T06:08:25;17.50;;;7.15;;
55672;SDS011;41554;45.366;20.400;2023-06-04T06:10:51;12.85;;;7.47;;
55672;SDS011;41554;45.366;20.400;2023-06-04T06:13:17;9.98;;;6.43;;
55672;SDS011;41554;45.366;20.400;2023-06-04T06:15:45;10.07;;;6.88;;
55672;SDS011;41554;45.366;20.400;2023-06-04T06:18:13;11.13;;;9.85;;
55672;SDS011;41554;45.366;20.400;2023-06-04T06:20:39;12.93;;;9.90;;
55672;SDS011;41554;45.366;20.400;2023-06-04T06:23:06;21.08;;;9.95;;
55672;SDS011;41554;45.366;20.400;2023-06-04T06:25:32;11.30;;;6.88;;
55672;SDS011;41554;45.366;20.400;2023-06-04T06:27:58;10.23;;;7.18;;
55672;SDS011;41554;45.366;20.400;2023-06-04T06:30:25;8.95;;;6.20;;
55672;SDS011;41554;45.366;20.400;2023-06-04T06:32:51;9.23;;;7.25;;
55672;SDS011;41554;45.366;20.400;2023-06-04T06:35:18;18.98;;;10.07;;
55672;SDS011;41554;45.366;20.400;2023-06-04T06:37:44;14.15;;;7.78;;
55672;SDS011;41554;45.366;20.400;2023-06-04T06:40:19;12.38;;;9.10;;
55672;SDS011;41554;45.366;20.400;2023-06-04T06:42:49;12.07;;;8.57;;
55672;SDS011;41554;45.366;20.400;2023-06-04T06:45:18;10.73;;;8.25;;
55672;SDS011;41554;45.366;20.400;2023-06-04T06:47:45;8.30;;;4.60;;
55672;SDS011;41554;45.366;20.400;2023-06-04T06:50:11;14.65;;;7.22;;
55672;SDS011;41554;45.366;20.400;2023-06-04T06:52:38;10.63;;;6.43;;
55672;SDS011;41554;45.366;20.400;2023-06-04T06:55:04;10.93;;;7.22;;
55672;SDS011;41554;45.366;20.400;2023-06-04T06:57:30;14.05;;;7.63;;
55672;SDS011;41554;45.366;20.400;2023-06-04T06:59:58;9.43;;;6.82;;
55672;SDS011;41554;45.366;20.400;2023-06-04T07:02:24;9.05;;;7.38;;
55672;SDS011;41554;45.366;20.400;2023-06-04T07:04:50;8.98;;;6.53;;
55672;SDS011;41554;45.366;20.400;2023-06-04T07:07:16;8.60;;;6.35;;
55672;SDS011;41554;45.366;20.400;2023-06-04T07:09:42;4.95;;;4.35;;
55672;SDS011;41554;45.366;20.400;2023-06-04T07:12:09;9.75;;;4.90;;
55672;SDS011;41554;45.366;20.400;2023-06-04T07:14:35;8.15;;;6.40;;
55672;SDS011;41554;45.366;20.400;2023-06-04T07:17:01;7.80;;;5.18;;
55672;SDS011;41554;45.366;20.400;2023-06-04T07:19:27;8.90;;;6.25;;
55672;SDS011;41554;45.366;20.400;2023-06-04T07:21:53;7.40;;;5.15;;
55672;SDS011;41554;45.366;20.400;2023-06-04T07:24:19;6.38;;;5.25;;
55672;SDS011;41554;45.366;20.400;2023-06-04T07:26:46;6.18;;;4.68;;
55672;SDS011;41554;45.366;20.400;2023-06-04T07:29:13;8.43;;;4.88;;
55672;SDS011;41554;45.366;20.400;2023-06-04T07:31:39;11.13;;;5.65;;
55672;SDS011;41554;45.366;20.400;2023-06-04T07:34:05;10.32;;;6.50;;
55672;SDS011;41554;45.366;20.400;2023-06-04T07:36:31;6.15;;;5.00;;
55672;SDS011;41554;45.366;20.400;2023-06-04T07:38:58;5.65;;;4.28;;
55672;SDS011;41554;45.366;20.400;2023-06-04T07:41:24;7.25;;;5.15;;
55672;SDS011;41554;45.366;20.400;2023-06-04T07:43:51;7.35;;;5.00;;
55672;SDS011;41554;45.366;20.400;2023-06-04T07:46:17;10.07;;;4.80;;
55672;SDS011;41554;45.366;20.400;2023-06-04T07:48:44;8.25;;;5.38;;
55672;SDS011;41554;45.366;20.400;2023-06-04T07:51:10;8.48;;;4.15;;
55672;SDS011;41554;45.366;20.400;2023-06-04T07:53:36;9.18;;;7.63;;
55672;SDS011;41554;45.366;20.400;2023-06-04T07:56:03;11.75;;;6.25;;
55672;SDS011;41554;45.366;20.400;2023-06-04T07:58:29;7.60;;;4.90;;
55672;SDS011;41554;45.366;20.400;2023-06-04T08:00:55;6.57;;;5.70;;
55672;SDS011;41554;45.366;20.400;2023-06-04T08:03:21;9.65;;;5.40;;
55672;SDS011;41554;45.366;20.400;2023-06-04T08:05:48;8.27;;;4.85;;
55672;SDS011;41554;45.366;20.400;2023-06-04T08:08:14;11.55;;;6.00;;
55672;SDS011;41554;45.366;20.400;2023-06-04T08:10:40;7.65;;;5.22;;
55672;SDS011;41554;45.366;20.400;2023-06-04T08:13:06;9.18;;;7.15;;
55672;SDS011;41554;45.366;20.400;2023-06-04T08:15:34;7.90;;;5.40;;
55672;SDS011;41554;45.366;20.400;2023-06-04T08:18:01;9.30;;;6.15;;
55672;SDS011;41554;45.366;20.400;2023-06-04T08:20:27;10.25;;;6.97;;
55672;SDS011;41554;45.366;20.400;2023-06-04T08:22:53;19.25;;;8.43;;
55672;SDS011;41554;45.366;20.400;2023-06-04T08:25:19;13.50;;;5.75;;
55672;SDS011;41554;45.366;20.400;2023-06-04T08:27:45;9.27;;;6.40;;
55672;SDS011;41554;45.366;20.400;2023-06-04T08:30:11;8.07;;;5.72;;
55672;SDS011;41554;45.366;20.400;2023-06-04T08:32:40;13.52;;;7.07;;
55672;SDS011;41554;45.366;20.400;2023-06-04T08:35:06;9.30;;;5.72;;
55672;SDS011;41554;45.366;20.400;2023-06-04T08:37:32;9.40;;;5.38;;
55672;SDS011;41554;45.366;20.400;2023-06-04T08:39:58;12.65;;;7.82;;
55672;SDS011;41554;45.366;20.400;2023-06-04T08:42:29;7.05;;;5.32;;
55672;SDS011;41554;45.366;20.400;2023-06-04T08:45:01;5.82;;;5.07;;
55672;SDS011;41554;45.366;20.400;2023-06-04T08:47:29;6.07;;;4.55;;
55672;SDS011;41554;45.366;20.400;2023-06-04T08:49:57;9.13;;;5.30;;
55672;SDS011;41554;45.366;20.400;2023-06-04T08:52:25;5.53;;;4.65;;
55672;SDS011;41554;45.366;20.400;2023-06-04T08:54:52;13.05;;;5.80;;
55672;SDS011;41554;45.366;20.400;2023-06-04T08:57:19;6.22;;;4.53;;
55672;SDS011;41554;45.366;20.400;2023-06-04T08:59:46;10.75;;;5.53;;
55672;SDS011;41554;45.366;20.400;2023-06-04T09:02:15;9.27;;;7.13;;
55672;SDS011;41554;45.366;20.400;2023-06-04T09:04:41;11.20;;;6.95;;
55672;SDS011;41554;45.366;20.400;2023-06-04T09:07:08;7.40;;;5.30;;
55672;SDS011;41554;45.366;20.400;2023-06-04T09:09:37;6.45;;;4.38;;
55672;SDS011;41554;45.366;20.400;2023-06-04T09:12:05;17.73;;;5.45;;
55672;SDS011;41554;45.366;20.400;2023-06-04T09:14:31;6.55;;;4.35;;
55672;SDS011;41554;45.366;20.400;2023-06-04T09:16:57;8.90;;;3.47;;
55672;SDS011;41554;45.366;20.400;2023-06-04T09:19:24;7.18;;;4.50;;
55672;SDS011;41554;45.366;20.400;2023-06-04T09:21:50;8.80;;;4.55;;
55672;SDS011;41554;45.366;20.400;2023-06-04T09:24:17;9.68;;;5.47;;
55672;SDS011;41554;45.366;20.400;2023-06-04T09:26:43;10.00;;;5.60;;
55672;SDS011;41554;45.366;20.400;2023-06-04T09:29:10;6.53;;;3.90;;
55672;SDS011;41554;45.366;20.400;2023-06-04T09:31:36;6.60;;;4.75;;
55672;SDS011;41554;45.366;20.400;2023-06-04T09:34:03;6.40;;;4.05;;
55672;SDS011;41554;45.366;20.400;2023-06-04T09:36:30;6.85;;;4.00;;
55672;SDS011;41554;45.366;20.400;2023-06-04T09:38:56;8.38;;;4.40;;
55672;SDS011;41554;45.366;20.400;2023-06-04T09:41:23;8.15;;;4.63;;
55672;SDS011;41554;45.366;20.400;2023-06-04T09:43:49;4.30;;;3.42;;
55672;SDS011;41554;45.366;20.400;2023-06-04T09:46:16;7.43;;;4.13;;
55672;SDS011;41554;45.366;20.400;2023-06-04T09:48:43;7.57;;;3.92;;
55672;SDS011;41554;45.366;20.400;2023-06-04T09:51:10;5.30;;;4.40;;
55672;SDS011;41554;45.366;20.400;2023-06-04T09:53:37;5.18;;;3.90;;
55672;SDS011;41554;45.366;20.400;2023-06-04T09:56:04;4.90;;;3.78;;
55672;SDS011;41554;45.366;20.400;2023-06-04T09:58:31;9.32;;;3.33;;
55672;SDS011;41554;45.366;20.400;2023-06-04T10:00:59;9.82;;;5.70;;
55672;SDS011;41554;45.366;20.400;2023-06-04T10:03:25;9.35;;;5.20;;
55672;SDS011;41554;45.366;20.400;2023-06-04T10:05:53;13.30;;;4.95;;
55672;SDS011;41554;45.366;20.400;2023-06-04T10:08:21;11.70;;;4.10;;
55672;SDS011;41554;45.366;20.400;2023-06-04T10:10:50;7.40;;;3.13;;
55672;SDS011;41554;45.366;20.400;2023-06-04T10:13:17;8.00;;;4.45;;
55672;SDS011;41554;45.366;20.400;2023-06-04T10:15:44;15.95;;;4.45;;
55672;SDS011;41554;45.366;20.400;2023-06-04T10:18:10;5.38;;;4.20;;
55672;SDS011;41554;45.366;20.400;2023-06-04T10:20:37;8.18;;;4.25;;
55672;SDS011;41554;45.366;20.400;2023-06-04T10:23:04;5.90;;;4.20;;
55672;SDS011;41554;45.366;20.400;2023-06-04T10:25:30;4.47;;;3.20;;
55672;SDS011;41554;45.366;20.400;2023-06-04T10:27:56;9.85;;;5.82;;
55672;SDS011;41554;45.366;20.400;2023-06-04T10:30:23;7.38;;;6.47;;
55672;SDS011;41554;45.366;20.400;2023-06-04T10:32:49;13.48;;;5.20;;
55672;SDS011;41554;45.366;20.400;2023-06-04T10:35:16;6.22;;;4.03;;
55672;SDS011;41554;45.366;20.400;2023-06-04T10:37:42;4.15;;;2.92;;
55672;SDS011;41554;45.366;20.400;2023-06-04T10:40:08;5.25;;;3.55;;
55672;SDS011;41554;45.366;20.400;2023-06-04T10:42:38;8.07;;;4.28;;
55672;SDS011;41554;45.366;20.400;2023-06-04T10:45:05;4.97;;;4.05;;
55672;SDS011;41554;45.366;20.400;2023-06-04T10:47:31;11.45;;;3.88;;
55672;SDS011;41554;45.366;20.400;2023-06-04T10:50:08;15.00;;;3.67;;
55672;SDS011;41554;45.366;20.400;2023-06-04T10:52:35;4.53;;;3.42;;
55672;SDS011;41554;45.366;20.400;2023-06-04T10:55:05;15.50;;;3.70;;
55672;SDS011;41554;45.366;20.400;2023-06-04T10:57:32;8.75;;;3.67;;
55672;SDS011;41554;45.366;20.400;2023-06-04T10:59:58;3.13;;;2.55;;
55672;SDS011;41554;45.366;20.400;2023-06-04T11:02:25;5.85;;;4.40;;
55672;SDS011;41554;45.366;20.400;2023-06-04T11:07:27;9.25;;;2.97;;
55672;SDS011;41554;45.366;20.400;2023-06-04T11:09:54;4.90;;;3.58;;
55672;SDS011;41554;45.366;20.400;2023-06-04T11:12:21;5.18;;;3.80;;
55672;SDS011;41554;45.366;20.400;2023-06-04T11:14:55;6.95;;;4.35;;
55672;SDS011;41554;45.366;20.400;2023-06-04T11:17:21;10.35;;;4.65;;
55672;SDS011;41554;45.366;20.400;2023-06-04T11:19:47;8.52;;;3.60;;
55672;SDS011;41554;45.366;20.400;2023-06-04T11:22:14;6.18;;;4.80;;
55672;SDS011;41554;45.366;20.400;2023-06-04T11:24:40;8.98;;;5.30;;
55672;SDS011;41554;45.366;20.400;2023-06-04T11:27:06;9.23;;;3.65;;
55672;SDS011;41554;45.366;20.400;2023-06-04T11:29:32;10.77;;;3.17;;
55672;SDS011;41554;45.366;20.400;2023-06-04T11:31:58;5.15;;;3.83;;
55672;SDS011;41554;45.366;20.400;2023-06-04T11:34:24;4.88;;;3.28;;
55672;SDS011;41554;45.366;20.400;2023-06-04T11:36:51;12.18;;;3.67;;
55672;SDS011;41554;45.366;20.400;2023-06-04T11:39:20;5.05;;;2.85;;
55672;SDS011;41554;45.366;20.400;2023-06-04T11:41:47;8.02;;;3.47;;
55672;SDS011;41554;45.366;20.400;2023-06-04T11:44:14;4.65;;;2.78;;
55672;SDS011;41554;45.366;20.400;2023-06-04T11:46:44;5.25;;;3.55;;
55672;SDS011;41554;45.366;20.400;2023-06-04T11:49:17;4.25;;;3.22;;
55672;SDS011;41554;45.366;20.400;2023-06-04T11:51:47;4.22;;;2.63;;
55672;SDS011;41554;45.366;20.400;2023-06-04T11:54:13;10.05;;;3.83;;
55672;SDS011;41554;45.366;20.400;2023-06-04T11:56:40;6.60;;;3.17;;
55672;SDS011;41554;45.366;20.400;2023-06-04T11:59:09;4.45;;;3.15;;
55672;SDS011;41554;45.366;20.400;2023-06-04T12:01:38;7.28;;;3.85;;
55672;SDS011;41554;45.366;20.400;2023-06-04T12:04:11;14.48;;;4.53;;
55672;SDS011;41554;45.366;20.400;2023-06-04T12:06:37;12.00;;;4.18;;
55672;SDS011;41554;45.366;20.400;2023-06-04T12:09:04;15.52;;;3.53;;
55672;SDS011;41554;45.366;20.400;2023-06-04T12:11:33;5.50;;;4.10;;
55672;SDS011;41554;45.366;20.400;2023-06-04T12:14:05;4.00;;;3.45;;
55672;SDS011;41554;45.366;20.400;2023-06-04T12:16:32;3.60;;;2.53;;
55672;SDS011;41554;45.366;20.400;2023-06-04T12:19:08;4.43;;;3.33;;
55672;SDS011;41554;45.366;20.400;2023-06-04T12:21:34;8.07;;;3.63;;
55672;SDS011;41554;45.366;20.400;2023-06-04T12:24:10;4.28;;;3.50;;
55672;SDS011;41554;45.366;20.400;2023-06-04T12:26:38;13.65;;;4.57;;
55672;SDS011;41554;45.366;20.400;2023-06-04T12:29:15;11.43;;;6.60;;
55672;SDS011;41554;45.366;20.400;2023-06-04T12:31:42;7.45;;;3.83;;
55672;SDS011;41554;45.366;20.400;2023-06-04T12:34:09;5.10;;;4.28;;
55672;SDS011;41554;45.366;20.400;2023-06-04T12:36:36;10.60;;;2.58;;
55672;SDS011;41554;45.366;20.400;2023-06-04T12:39:03;6.57;;;3.33;;
55672;SDS011;41554;45.366;20.400;2023-06-04T12:41:30;3.65;;;3.03;;
55672;SDS011;41554;45.366;20.400;2023-06-04T12:43:56;2.83;;;2.50;;
55672;SDS011;41554;45.366;20.400;2023-06-04T12:46:22;4.13;;;2.55;;
55672;SDS011;41554;45.366;20.400;2023-06-04T12:48:50;5.18;;;3.10;;
55672;SDS011;41554;45.366;20.400;2023-06-04T12:51:16;5.28;;;2.78;;
55672;SDS011;41554;45.366;20.400;2023-06-04T12:53:42;5.07;;;2.90;;
55672;SDS011;41554;45.366;20.400;2023-06-04T12:56:09;4.32;;;3.20;;
55672;SDS011;41554;45.366;20.400;2023-06-04T12:58:35;6.38;;;3.17;;
55672;SDS011;41554;45.366;20.400;2023-06-04T13:01:01;6.28;;;4.22;;
55672;SDS011;41554;45.366;20.400;2023-06-04T13:03:29;6.20;;;3.35;;
55672;SDS011;41554;45.366;20.400;2023-06-04T13:05:55;4.38;;;2.65;;
55672;SDS011;41554;45.366;20.400;2023-06-04T13:08:21;4.00;;;3.05;;
55672;SDS011;41554;45.366;20.400;2023-06-04T13:10:48;4.45;;;3.22;;
55672;SDS011;41554;45.366;20.400;2023-06-04T13:13:14;3.67;;;3.38;;
55672;SDS011;41554;45.366;20.400;2023-06-04T13:15:41;5.03;;;3.25;;
55672;SDS011;41554;45.366;20.400;2023-06-04T13:18:08;5.57;;;4.20;;
55672;SDS011;41554;45.366;20.400;2023-06-04T13:20:34;3.95;;;2.88;;
55672;SDS011;41554;45.366;20.400;2023-06-04T13:23:00;5.35;;;3.30;;
55672;SDS011;41554;45.366;20.400;2023-06-04T13:25:26;3.90;;;2.75;;
55672;SDS011;41554;45.366;20.400;2023-06-04T13:27:53;5.55;;;3.50;;
55672;SDS011;41554;45.366;20.400;2023-06-04T13:30:20;5.18;;;3.08;;
55672;SDS011;41554;45.366;20.400;2023-06-04T13:32:47;7.95;;;3.42;;
55672;SDS011;41554;45.366;20.400;2023-06-04T13:35:13;3.90;;;2.83;;
55672;SDS011;41554;45.366;20.400;2023-06-04T13:37:39;4.20;;;2.05;;
55672;SDS011;41554;45.366;20.400;2023-06-04T13:40:05;2.90;;;2.53;;
55672;SDS011;41554;45.366;20.400;2023-06-04T13:42:32;2.78;;;2.33;;
55672;SDS011;41554;45.366;20.400;2023-06-04T13:44:58;6.25;;;4.20;;
55672;SDS011;41554;45.366;20.400;2023-06-04T13:47:24;5.78;;;2.55;;
55672;SDS011;41554;45.366;20.400;2023-06-04T13:49:51;8.27;;;3.10;;
55672;SDS011;41554;45.366;20.400;2023-06-04T13:52:17;4.78;;;2.10;;
55672;SDS011;41554;45.366;20.400;2023-06-04T13:54:43;3.90;;;2.75;;
55672;SDS011;41554;45.366;20.400;2023-06-04T13:57:09;4.25;;;2.72;;
55672;SDS011;41554;45.366;20.400;2023-06-04T13:59:38;2.20;;;2.00;;
55672;SDS011;41554;45.366;20.400;2023-06-04T14:02:05;3.65;;;2.63;;
55672;SDS011;41554;45.366;20.400;2023-06-04T14:04:31;7.20;;;2.63;;
55672;SDS011;41554;45.366;20.400;2023-06-04T14:06:58;3.03;;;2.13;;
55672;SDS011;41554;45.366;20.400;2023-06-04T14:09:24;3.83;;;2.33;;
55672;SDS011;41554;45.366;20.400;2023-06-04T14:11:50;4.57;;;2.08;;
55672;SDS011;41554;45.366;20.400;2023-06-04T14:14:17;4.30;;;2.85;;
55672;SDS011;41554;45.366;20.400;2023-06-04T14:16:44;7.15;;;2.28;;
55672;SDS011;41554;45.366;20.400;2023-06-04T14:19:10;2.13;;;1.65;;
55672;SDS011;41554;45.366;20.400;2023-06-04T14:21:36;4.28;;;3.20;;
55672;SDS011;41554;45.366;20.400;2023-06-04T14:24:02;2.95;;;2.28;;
55672;SDS011;41554;45.366;20.400;2023-06-04T14:26:29;3.40;;;2.55;;
55672;SDS011;41554;45.366;20.400;2023-06-04T14:28:55;2.58;;;2.20;;
55672;SDS011;41554;45.366;20.400;2023-06-04T14:31:21;7.88;;;3.80;;
55672;SDS011;41554;45.366;20.400;2023-06-04T14:33:48;2.40;;;1.98;;
55672;SDS011;41554;45.366;20.400;2023-06-04T14:36:14;4.30;;;2.58;;